Time;durP1;ratioP1;P1;durP2;ratioP2;P2;SDS_P1;SDS_P2;PMS_P1;PMS_P2;Temp;Humidity;BMP_temperature;BMP_pressure;BME280_temperature;BME280_humidity;BME280_pressure;Samples;Min_cycle;Max_cycle;Signal;HPM_P1;HPM_P2
2023/08/29 00:00:17;;;;;;;4.93;4.43;;;;;;;19.86;60.48;98097.66;6997251;28;20216;-85
2023/08/29 00:03:38;;;;;;;4.93;4.43;;;;;;;19.78;60.44;98090.84;6997339;28;20226;-84
2023/08/29 00:07:00;;;;;;;4.20;3.80;;;;;;;19.89;59.96;98086.97;6996483;28;20288;-84
2023/08/29 00:10:21;;;;;;;5.27;4.77;;;;;;;19.94;59.87;98091.59;6997178;28;20206;-84
2023/08/29 00:13:44;;;;;;;5.87;4.10;;;;;;;19.92;59.52;98088.34;6997034;28;20260;-83
2023/08/29 00:17:06;;;;;;;7.30;4.50;;;;;;;19.66;60.16;98084.06;6995828;28;20209;-85
2023/08/29 00:20:27;;;;;;;7.30;4.43;;;;;;;19.65;60.75;98085.16;6996874;28;20297;-84
2023/08/29 00:23:49;;;;;;;5.60;4.60;;;;;;;19.63;60.31;98084.66;6997136;28;20781;-84
2023/08/29 00:27:10;;;;;;;3.93;3.63;;;;;;;19.68;60.06;98084.59;6995831;28;20659;-84
2023/08/29 00:30:36;;;;;;;4.30;3.90;;;;;;;19.53;60.28;98085.50;6996609;28;20706;-84
2023/08/29 00:33:58;;;;;;;4.10;3.80;;;;;;;19.37;60.18;98055.75;6998451;28;20315;-84
2023/08/29 00:37:20;;;;;;;4.87;4.10;;;;;;;19.70;60.29;98091.41;6997554;28;20304;-83
2023/08/29 00:40:41;;;;;;;4.40;4.00;;;;;;;18.74;60.29;97952.66;7001957;28;20275;-83
2023/08/29 00:44:03;;;;;;;4.70;4.30;;;;;;;18.88;60.33;97989.22;7003449;28;20264;-83
2023/08/29 00:47:27;;;;;;;4.77;4.13;;;;;;;19.57;60.56;98107.63;7003276;28;20373;-85
2023/08/29 00:50:49;;;;;;;4.50;4.00;;;;;;;19.20;61.11;98101.69;7003612;28;20343;-83
2023/08/29 00:54:10;;;;;;;4.10;3.80;;;;;;;19.49;60.38;98105.47;7003462;28;20753;-84
2023/08/29 00:57:32;;;;;;;4.37;3.90;;;;;;;19.10;60.06;98025.22;7002212;28;20243;-83
2023/08/29 01:00:54;;;;;;;4.00;3.60;;;;;;;19.54;59.86;98083.56;6993340;28;20343;-84
2023/08/29 01:04:16;;;;;;;5.97;3.97;;;;;;;19.49;60.06;98100.00;6972887;28;20316;-83
2023/08/29 01:07:39;;;;;;;4.17;3.83;;;;;;;19.59;59.66;98095.31;6974348;28;20690;-83
2023/08/29 01:11:06;;;;;;;4.67;4.27;;;;;;;19.51;60.10;98103.28;6974762;28;20236;-83
2023/08/29 01:14:34;;;;;;;4.20;3.87;;;;;;;19.47;60.18;98092.09;6974500;28;20305;-84
2023/08/29 01:18:05;;;;;;;3.97;3.60;;;;;;;18.91;60.27;98032.34;6968874;28;20190;-85
2023/08/29 01:21:37;;;;;;;4.40;4.10;;;;;;;19.33;60.04;98101.97;6974058;28;20277;-83
2023/08/29 01:25:03;;;;;;;4.20;3.87;;;;;;;19.30;60.08;98082.56;6974505;28;20929;-83
2023/08/29 01:28:26;;;;;;;4.43;3.97;;;;;;;19.51;59.62;98103.28;6973308;28;20205;-83
2023/08/29 01:31:49;;;;;;;4.87;3.70;;;;;;;19.48;59.41;98101.94;6973653;28;20371;-84
2023/08/29 01:35:13;;;;;;;4.43;3.97;;;;;;;19.46;59.69;98104.09;6974321;28;20317;-84
2023/08/29 01:38:35;;;;;;;4.17;3.87;;;;;;;19.49;59.52;98098.09;6972866;28;20340;-83
2023/08/29 01:41:56;;;;;;;4.63;4.23;;;;;;;19.56;59.55;98097.78;6974077;28;20292;-84
2023/08/29 01:45:19;;;;;;;4.10;3.70;;;;;;;19.48;59.70;98101.94;6973572;28;20453;-83
2023/08/29 01:48:41;;;;;;;4.03;3.60;;;;;;;19.58;59.45;98098.34;6972648;28;20201;-84
2023/08/29 01:52:03;;;;;;;3.90;3.60;;;;;;;19.58;59.40;98099.13;6972089;28;20370;-83
2023/08/29 01:55:25;;;;;;;3.77;3.40;;;;;;;19.74;58.93;98094.44;6973619;28;20268;-87
2023/08/29 01:58:48;;;;;;;4.27;3.87;;;;;;;19.20;59.08;98028.72;6973321;28;20303;-84
2023/08/29 02:02:11;;;;;;;4.07;3.67;;;;;;;19.12;59.19;98080.41;6974959;28;20269;-84
2023/08/29 02:05:33;;;;;;;3.73;3.43;;;;;;;19.58;58.22;98090.13;6990697;28;20229;-87
2023/08/29 02:08:55;;;;;;;4.20;3.80;;;;;;;19.43;57.81;98019.91;6992784;28;20207;-85
2023/08/29 02:12:16;;;;;;;4.17;3.63;;;;;;;19.66;57.79;98087.63;6992795;28;20698;-83
2023/08/29 02:15:38;;;;;;;3.73;3.43;;;;;;;18.75;58.47;97948.84;6989937;28;20234;-86
2023/08/29 02:19:01;;;;;;;3.97;3.57;;;;;;;19.66;58.25;98084.06;6990815;28;20213;-85
2023/08/29 02:22:24;;;;;;;3.43;3.23;;;;;;;18.86;59.75;98046.03;6990562;28;20205;-84
2023/08/29 02:25:45;;;;;;;5.77;3.70;;;;;;;19.53;59.21;98063.63;7003871;28;20224;-83
2023/08/29 02:29:06;;;;;;;4.33;3.90;;;;;;;19.42;59.16;98081.16;7016873;28;20255;-84
2023/08/29 02:32:28;;;;;;;5.20;3.80;;;;;;;19.52;59.50;98077.56;6994194;28;20776;-85
2023/08/29 02:35:51;;;;;;;4.00;3.67;;;;;;;19.43;59.44;98041.78;6987166;28;20237;-86
2023/08/29 02:39:12;;;;;;;4.73;4.37;;;;;;;19.55;59.43;98072.38;6987874;28;20290;-83
2023/08/29 02:42:34;;;;;;;5.90;3.83;;;;;;;19.44;59.94;98061.72;6987263;28;20209;-85
2023/08/29 02:45:56;;;;;;;4.50;4.10;;;;;;;19.57;59.71;98064.69;6985930;28;20642;-83
2023/08/29 02:49:17;;;;;;;4.90;4.40;;;;;;;19.55;59.82;98066.06;6986070;28;20260;-83
2023/08/29 02:52:40;;;;;;;4.80;4.20;;;;;;;19.48;59.90;98062.81;6985097;28;20372;-84
2023/08/29 02:56:01;;;;;;;5.13;4.70;;;;;;;19.47;60.72;98058.44;6983930;28;20671;-83
2023/08/29 02:59:23;;;;;;;4.57;4.17;;;;;;;19.43;60.74;98052.72;6984515;28;20237;-83
2023/08/29 03:02:44;;;;;;;4.80;4.30;;;;;;;19.42;61.13;98053.84;6984423;28;20741;-84
2023/08/29 03:06:06;;;;;;;5.20;4.70;;;;;;;19.49;60.79;98051.59;6980831;28;20269;-83
2023/08/29 03:09:30;;;;;;;5.10;4.30;;;;;;;18.78;61.58;97940.91;6984553;28;20260;-84
2023/08/29 03:12:51;;;;;;;5.10;4.70;;;;;;;19.56;61.27;98046.66;6987176;28;20282;-84
2023/08/29 03:16:14;;;;;;;6.73;4.90;;;;;;;19.39;61.70;98048.91;6973779;28;20276;-83
2023/08/29 03:19:37;;;;;;;6.70;5.17;;;;;;;19.54;61.10;98039.81;6965480;28;20246;-84
2023/08/29 03:22:59;;;;;;;6.40;4.87;;;;;;;19.42;61.55;98029.22;6946368;28;20317;-83
2023/08/29 03:26:22;;;;;;;6.47;5.20;;;;;;;19.17;61.44;98040.19;6945017;28;20297;-83
2023/08/29 03:29:43;;;;;;;4.90;4.50;;;;;;;19.08;60.95;98033.69;6946297;28;20239;-83
2023/08/29 03:33:05;;;;;;;5.27;4.60;;;;;;;19.15;60.65;98033.38;6968138;28;20686;-83
2023/08/29 03:36:26;;;;;;;4.63;4.27;;;;;;;19.21;60.86;98033.13;7000204;28;20343;-82
2023/08/29 03:39:48;;;;;;;5.13;4.67;;;;;;;18.71;60.49;97939.56;7001452;28;20300;-84
2023/08/29 03:43:11;;;;;;;6.27;4.67;;;;;;;18.99;60.72;98034.53;7000602;28;20312;-83
2023/08/29 03:46:32;;;;;;;4.63;4.23;;;;;;;19.15;60.80;98014.25;6999375;28;20282;-84
2023/08/29 03:49:54;;;;;;;5.93;4.77;;;;;;;18.85;61.55;98023.38;6999992;28;20325;-84
2023/08/29 03:53:15;;;;;;;5.17;4.67;;;;;;;18.20;62.42;97955.19;6999760;28;20231;-83
2023/08/29 03:56:37;;;;;;;5.10;4.70;;;;;;;18.69;61.57;97969.88;6978510;28;20289;-84
2023/08/29 04:00:06;;;;;;;5.77;5.10;;;;;;;19.01;61.15;98003.13;6970503;28;20630;-83
2023/08/29 04:03:28;;;;;;;5.60;5.10;;;;;;;19.13;61.40;98032.84;6970819;28;20268;-85
2023/08/29 04:06:50;;;;;;;5.20;4.70;;;;;;;19.17;61.50;97999.22;6990684;28;20347;-84
2023/08/29 04:10:13;;;;;;;5.50;5.00;;;;;;;19.28;61.64;98041.03;6998374;28;20254;-84
2023/08/29 04:13:35;;;;;;;6.20;5.47;;;;;;;19.36;62.06;98030.34;6997380;28;20315;-84
2023/08/29 04:16:57;;;;;;;6.00;5.50;;;;;;;19.58;61.72;98027.22;6974851;28;20251;-84
2023/08/29 04:20:21;;;;;;;5.23;4.73;;;;;;;19.49;60.93;98031.63;6970465;28;20804;-83
2023/08/29 04:23:42;;;;;;;5.97;5.47;;;;;;;19.20;62.19;98020.53;6970346;28;20226;-85
2023/08/29 04:27:04;;;;;;;7.60;6.40;;;;;;;19.14;62.33;98026.28;6969504;28;20248;-84
2023/08/29 04:30:26;;;;;;;8.30;6.40;;;;;;;19.15;63.29;98034.22;6970240;28;20237;-84
2023/08/29 04:33:49;;;;;;;7.53;6.83;;;;;;;19.48;62.75;98039.03;6970299;28;20602;-82
2023/08/29 04:37:11;;;;;;;7.90;7.10;;;;;;;19.55;62.62;98050.50;6969159;28;20299;-84
2023/08/29 04:40:32;;;;;;;6.30;5.70;;;;;;;19.65;62.50;98042.25;6970428;28;20212;-84
2023/08/29 04:43:54;;;;;;;7.30;6.70;;;;;;;19.49;62.60;98048.03;6969125;28;20652;-83
2023/08/29 04:47:15;;;;;;;5.73;5.33;;;;;;;19.25;61.81;97978.72;6956622;28;20206;-85
2023/08/29 04:50:39;;;;;;;5.97;5.43;;;;;;;19.58;61.97;98032.69;6957579;28;20296;-85
2023/08/29 04:54:01;;;;;;;7.07;5.07;;;;;;;19.50;62.08;98036.84;6967539;28;20240;-83
2023/08/29 04:57:22;;;;;;;7.20;5.23;;;;;;;19.50;61.92;98030.53;6967991;28;20554;-84
2023/08/29 05:00:44;;;;;;;6.40;5.83;;;;;;;19.05;63.39;98041.63;6971016;28;20232;-83
2023/08/29 05:04:06;;;;;;;6.80;6.13;;;;;;;19.27;63.92;98036.69;6990296;28;20663;-84
2023/08/29 05:07:28;;;;;;;6.77;6.07;;;;;;;19.58;63.16;98041.72;6964959;28;20295;-84
2023/08/29 05:10:50;;;;;;;7.10;6.37;;;;;;;19.48;62.36;98035.47;6974842;28;20356;-84
2023/08/29 05:14:12;;;;;;;7.40;6.80;;;;;;;18.76;64.48;98046.06;6973169;28;20230;-84
2023/08/29 05:17:33;;;;;;;9.93;7.17;;;;;;;18.46;64.73;98054.28;6968799;28;20217;-83
2023/08/29 05:20:55;;;;;;;8.63;7.40;;;;;;;18.83;65.09;98052.03;6964822;28;20703;-83
2023/08/29 05:24:18;;;;;;;7.70;7.00;;;;;;;18.60;64.21;97974.28;6971215;28;20682;-84
2023/08/29 05:27:40;;;;;;;8.00;7.20;;;;;;;19.22;63.30;98032.03;6974119;28;20693;-84
2023/08/29 05:31:01;;;;;;;10.03;7.33;;;;;;;19.12;63.22;98045.72;6975124;28;20225;-83
2023/08/29 05:34:23;;;;;;;8.30;7.23;;;;;;;19.33;62.97;98043.75;6974636;28;20232;-83
2023/08/29 05:37:46;;;;;;;8.30;7.60;;;;;;;19.37;63.50;98033.88;6974069;28;20303;-84
2023/08/29 05:41:09;;;;;;;8.80;8.00;;;;;;;18.99;63.74;97986.16;6974525;28;20226;-83
2023/08/29 05:44:31;;;;;;;9.90;9.00;;;;;;;18.66;64.34;97991.44;6977524;28;20237;-83
2023/08/29 05:47:52;;;;;;;10.30;9.13;;;;;;;19.33;63.83;98046.50;6975996;28;20722;-83
2023/08/29 05:51:14;;;;;;;10.00;9.03;;;;;;;19.41;63.85;98049.44;6974867;28;20353;-84
2023/08/29 05:54:36;;;;;;;10.10;9.10;;;;;;;19.39;64.28;98059.03;6977994;28;20361;-85
2023/08/29 05:57:59;;;;;;;12.03;9.37;;;;;;;19.67;63.33;98047.41;6990297;28;20198;-82
2023/08/29 06:01:20;;;;;;;10.00;8.93;;;;;;;19.93;62.38;98060.66;6966057;28;20204;-83
2023/08/29 06:04:42;;;;;;;10.77;9.67;;;;;;;19.88;63.29;98055.22;6971170;28;20308;-83
2023/08/29 06:08:04;;;;;;;10.60;9.50;;;;;;;19.39;62.53;97983.28;6971892;28;20333;-83
2023/08/29 06:11:28;;;;;;;12.50;11.30;;;;;;;19.88;62.43;98043.47;6946734;28;20213;-83
2023/08/29 06:14:51;;;;;;;14.43;12.97;;;;;;;19.89;62.99;98050.56;6946564;28;20241;-83
2023/08/29 06:18:12;;;;;;;13.83;12.40;;;;;;;19.86;62.67;98065.63;6946160;28;20237;-83
2023/08/29 06:21:34;;;;;;;14.53;13.10;;;;;;;19.57;63.08;98053.75;6945806;28;20252;-86
2023/08/29 06:24:55;;;;;;;14.77;13.37;;;;;;;19.95;63.22;98063.13;6945477;28;20219;-84
2023/08/29 06:28:17;;;;;;;14.47;12.97;;;;;;;19.85;63.13;98074.94;6958938;28;20355;-82
2023/08/29 06:31:40;;;;;;;15.33;13.73;;;;;;;19.92;62.56;98063.72;7000566;28;20205;-84
2023/08/29 06:35:03;;;;;;;14.70;13.20;;;;;;;19.83;63.35;98084.53;6996729;28;20293;-83
2023/08/29 06:38:25;;;;;;;15.87;14.23;;;;;;;19.76;63.74;98082.09;6964857;28;20206;-83
2023/08/29 06:41:47;;;;;;;16.47;14.83;;;;;;;20.01;62.94;98081.16;6970857;28;20332;-83
2023/08/29 06:45:09;;;;;;;16.43;14.70;;;;;;;19.88;63.10;98098.19;6970437;28;20234;-82
2023/08/29 06:48:32;;;;;;;15.83;14.13;;;;;;;19.99;63.30;98084.16;6971793;28;20257;-84
2023/08/29 06:51:53;;;;;;;18.50;16.57;;;;;;;20.09;63.02;98066.88;6971669;28;20210;-82
2023/08/29 06:55:16;;;;;;;18.53;16.70;;;;;;;19.92;63.26;98096.53;6970892;28;20379;-82
2023/08/29 06:58:38;;;;;;;18.43;16.50;;;;;;;19.54;63.54;98029.72;6964397;28;20294;-82
2023/08/29 07:01:59;;;;;;;19.33;17.30;;;;;;;19.74;63.94;98095.25;6943367;28;20242;-81
2023/08/29 07:05:23;;;;;;;18.83;16.63;;;;;;;19.74;64.39;98097.97;6954140;28;20268;-82
2023/08/29 07:08:47;;;;;;;18.17;16.27;;;;;;;19.67;64.67;98092.00;6959411;28;20206;-82
2023/08/29 07:12:08;;;;;;;18.40;16.40;;;;;;;20.05;63.84;98110.41;6963184;28;20256;-82
2023/08/29 07:15:30;;;;;;;17.90;15.37;;;;;;;20.08;63.14;98101.66;6954265;28;20317;-82
2023/08/29 07:18:52;;;;;;;17.70;15.83;;;;;;;19.87;63.97;98104.78;6969887;28;20667;-82
2023/08/29 07:22:15;;;;;;;20.43;16.30;;;;;;;19.99;63.94;98114.25;6971644;28;20289;-83
2023/08/29 07:25:38;;;;;;;18.03;15.23;;;;;;;19.58;64.99;98125.69;6972104;28;20233;-82
2023/08/29 07:29:00;;;;;;;18.50;16.60;;;;;;;19.84;64.14;98117.09;6972850;28;20655;-82
2023/08/29 07:32:22;;;;;;;17.07;15.50;;;;;;;19.65;64.08;98109.78;6972837;28;20236;-82
2023/08/29 07:35:45;;;;;;;19.07;17.10;;;;;;;19.86;63.83;98103.94;6971466;28;20290;-82
2023/08/29 07:39:08;;;;;;;18.73;16.67;;;;;;;19.76;64.10;98127.78;6950518;28;20681;-83
2023/08/29 07:42:29;;;;;;;19.37;17.40;;;;;;;19.60;64.31;98132.50;6987144;28;20288;-85
2023/08/29 07:45:53;;;;;;;18.63;16.67;;;;;;;19.77;64.39;98127.53;6972755;28;20776;-82
2023/08/29 07:49:14;;;;;;;20.47;15.73;;;;;;;19.32;63.82;98064.78;6977855;28;20205;-82
2023/08/29 07:52:36;;;;;;;19.50;16.10;;;;;;;19.82;64.04;98140.34;6965579;28;20256;-82
2023/08/29 07:55:58;;;;;;;18.80;16.73;;;;;;;19.62;65.36;98146.72;6976101;28;20335;-82
2023/08/29 07:59:20;;;;;;;22.87;17.60;;;;;;;19.76;65.29;98150.47;6981316;28;20255;-81
2023/08/29 08:02:42;;;;;;;18.00;16.30;;;;;;;19.97;64.07;98134.78;6973287;28;20201;-82
2023/08/29 08:06:03;;;;;;;16.00;14.43;;;;;;;19.79;64.00;98127.22;6987675;28;20275;-82
2023/08/29 08:09:26;;;;;;;16.50;14.60;;;;;;;19.99;63.82;98147.09;6971260;28;20221;-80
2023/08/29 08:12:49;;;;;;;15.30;13.90;;;;;;;19.59;64.25;98078.09;6991386;28;20247;-81
2023/08/29 08:16:11;;;;;;;16.57;15.07;;;;;;;19.92;63.84;98154.78;6978798;28;20283;-83
2023/08/29 08:19:33;;;;;;;15.20;13.70;;;;;;;20.23;63.43;98148.09;6974707;28;20255;-82
2023/08/29 08:22:54;;;;;;;16.50;14.80;;;;;;;20.44;63.36;98149.63;6962965;28;20210;-82
2023/08/29 08:26:16;;;;;;;15.13;13.70;;;;;;;19.74;64.39;98130.81;6965875;28;20289;-82
2023/08/29 08:29:39;;;;;;;15.33;13.87;;;;;;;19.93;63.77;98158.38;6975147;28;20286;-82
2023/08/29 08:33:01;;;;;;;16.67;14.80;;;;;;;19.83;64.67;98153.75;6962165;28;20234;-82
2023/08/29 08:36:22;;;;;;;15.77;14.17;;;;;;;20.49;63.36;98146.84;6975397;28;20231;-82
2023/08/29 08:39:44;;;;;;;14.83;13.40;;;;;;;20.15;63.18;98154.16;6988717;28;20213;-81
2023/08/29 08:43:06;;;;;;;15.63;14.10;;;;;;;19.51;64.72;98117.75;6978183;28;20585;-81
2023/08/29 08:46:30;;;;;;;17.40;15.77;;;;;;;19.84;64.99;98169.06;6949036;28;20223;-84
2023/08/29 08:49:51;;;;;;;16.00;14.33;;;;;;;19.93;66.12;98161.09;6950572;28;20210;-81
2023/08/29 08:53:14;;;;;;;15.10;13.80;;;;;;;19.88;65.23;98109.94;6974442;28;20336;-81
2023/08/29 08:56:38;;;;;;;15.93;12.50;;;;;;;20.34;63.25;98136.00;6973854;28;20256;-81
2023/08/29 08:59:59;;;;;;;12.67;11.57;;;;;;;20.64;62.82;98151.41;6975514;28;20291;-83
2023/08/29 09:03:22;;;;;;;13.13;11.97;;;;;;;20.31;63.98;98155.72;6955477;28;20226;-81
2023/08/29 09:06:44;;;;;;;13.23;11.87;;;;;;;20.67;63.35;98165.34;6951834;28;20286;-82
2023/08/29 09:10:07;;;;;;;17.00;13.90;;;;;;;20.93;62.57;98157.78;6970032;28;20691;-83
2023/08/29 09:13:29;;;;;;;76.63;29.63;;;;;;;20.82;63.93;98158.94;6978678;28;20230;-81
2023/08/29 09:16:53;;;;;;;12.63;11.37;;;;;;;;;;6974391;28;20221;-81
2023/08/29 09:20:16;;;;;;;10.67;9.80;;;;;;;21.16;60.70;98146.06;6968995;28;20712;-80
2023/08/29 09:23:39;;;;;;;11.30;10.20;;;;;;;21.23;61.19;98161.06;6953658;28;20703;-83
2023/08/29 09:27:01;;;;;;;11.00;9.90;;;;;;;21.19;60.51;98157.28;6966421;28;20365;-83
2023/08/29 09:30:22;;;;;;;11.23;10.13;;;;;;;21.20;62.17;98156.97;6953473;28;20207;-82
2023/08/29 09:33:44;;;;;;;10.93;9.83;;;;;;;21.37;61.24;98159.28;6975547;28;20261;-82
2023/08/29 09:37:07;;;;;;;9.50;8.50;;;;;;;21.61;60.06;98168.34;6970034;28;20293;-80
2023/08/29 09:40:29;;;;;;;12.63;10.23;;;;;;;21.19;61.19;98169.03;6977971;28;20561;-82
2023/08/29 09:43:50;;;;;;;11.40;10.40;;;;;;;21.51;61.09;98172.03;6975840;28;20715;-80
2023/08/29 09:47:12;;;;;;;11.13;10.13;;;;;;;21.47;60.08;98165.47;6976994;28;20217;-82
2023/08/29 09:50:34;;;;;;;9.87;8.90;;;;;;;21.25;60.55;98151.44;6976038;28;20611;-81
2023/08/29 09:53:58;;;;;;;9.50;8.70;;;;;;;21.25;60.47;98172.56;6974422;28;20238;-80
2023/08/29 09:57:22;;;;;;;9.90;9.10;;;;;;;20.65;62.15;98167.56;6973084;28;20249;-80
2023/08/29 10:00:44;;;;;;;9.67;8.80;;;;;;;20.90;61.96;98169.31;6974835;28;20215;-82
2023/08/29 10:04:07;;;;;;;10.50;9.60;;;;;;;20.45;62.21;98164.94;6978658;28;20317;-81
2023/08/29 10:07:37;;;;;;;10.67;9.77;;;;;;;20.59;62.27;98159.66;6976400;28;20659;-82
2023/08/29 10:11:01;;;;;;;11.50;10.40;;;;;;;20.49;62.10;98163.28;6978163;28;20187;-81
2023/08/29 10:14:22;;;;;;;10.63;9.73;;;;;;;20.36;61.66;98161.19;6961100;28;20762;-83
2023/08/29 10:17:45;;;;;;;11.43;10.43;;;;;;;20.05;63.39;98167.06;6962140;28;20199;-82
2023/08/29 10:21:06;;;;;;;11.80;10.50;;;;;;;20.56;63.21;98179.38;6974182;28;20723;-82
2023/08/29 10:24:29;;;;;;;9.33;8.43;;;;;;;20.31;62.32;98157.63;6948670;28;20250;-79
2023/08/29 10:27:52;;;;;;;11.27;10.17;;;;;;;20.44;62.72;98182.47;6968457;28;20577;-77
2023/08/29 10:31:13;;;;;;;10.67;9.67;;;;;;;20.91;62.31;98168.19;6973268;28;20283;-82
2023/08/29 10:34:36;;;;;;;10.10;9.20;;;;;;;20.89;61.47;98165.78;6975151;28;20303;-83
2023/08/29 10:38:01;;;;;;;11.30;10.30;;;;;;;20.65;62.17;98180.44;6974306;28;20207;-82
2023/08/29 10:41:22;;;;;;;11.13;10.07;;;;;;;20.87;61.78;98180.81;6975100;28;20660;-82
2023/08/29 10:44:47;;;;;;;11.70;10.60;;;;;;;20.43;63.30;98174.53;6975457;28;20295;-81
2023/08/29 10:48:09;;;;;;;11.63;10.67;;;;;;;20.93;62.83;98179.72;6974409;28;20199;-81
2023/08/29 10:51:32;;;;;;;11.40;10.30;;;;;;;20.84;62.19;98169.31;6978126;28;20229;-81
2023/08/29 10:55:03;;;;;;;10.40;9.50;;;;;;;20.64;61.98;98178.81;6977114;28;20862;-81
2023/08/29 10:58:34;;;;;;;9.20;8.30;;;;;;;20.63;61.18;98177.16;6975907;28;20218;-81
2023/08/29 11:02:25;;;;;;;10.50;8.47;;;;;;;20.92;61.02;98167.13;6981572;28;20580;-83
2023/08/29 11:05:56;;;;;;;9.67;8.77;;;;;;;20.45;60.92;98123.88;6976995;28;20226;-82
2023/08/29 11:09:20;;;;;;;10.43;9.07;;;;;;;20.48;61.18;98171.78;6975514;28;20235;-81
2023/08/29 11:13:07;;;;;;;11.43;10.20;;;;;;;20.59;62.02;98156.91;6976042;28;20202;-83
2023/08/29 11:16:30;;;;;;;11.33;10.30;;;;;;;21.09;61.49;98165.59;6976994;28;20226;-82
2023/08/29 11:19:54;;;;;;;11.47;10.47;;;;;;;20.95;61.63;98156.41;6977080;28;20218;-83
2023/08/29 11:23:16;;;;;;;10.93;10.03;;;;;;;20.95;61.19;98158.31;6976909;28;20272;-83
2023/08/29 11:26:39;;;;;;;11.03;10.13;;;;;;;20.99;61.90;98153.91;6975444;28;20291;-83
2023/08/29 11:30:02;;;;;;;11.10;10.10;;;;;;;21.24;62.03;98154.50;6969291;28;20686;-83
2023/08/29 11:33:31;;;;;;;10.90;10.00;;;;;;;21.52;61.14;98148.97;6975822;28;20230;-83
2023/08/29 11:36:54;;;;;;;9.10;8.37;;;;;;;21.48;60.02;98138.88;6973879;28;20295;-87
2023/08/29 11:40:19;;;;;;;9.67;8.77;;;;;;;21.25;61.56;98150.63;6976281;28;20297;-82
2023/08/29 11:43:41;;;;;;;9.93;9.13;;;;;;;21.38;61.29;98097.84;6975415;28;20319;-82
2023/08/29 11:47:03;;;;;;;9.60;8.80;;;;;;;21.65;60.36;98137.28;6973174;28;20226;-82
2023/08/29 11:50:25;;;;;;;9.77;8.93;;;;;;;21.99;59.99;98145.41;6973227;28;20202;-82
2023/08/29 11:53:51;;;;;;;8.20;7.50;;;;;;;21.83;59.54;98130.28;6972772;28;20226;-80
2023/08/29 11:57:13;;;;;;;8.63;7.93;;;;;;;22.26;57.83;98118.97;6968318;28;20219;-82
2023/08/29 12:00:35;;;;;;;8.33;7.63;;;;;;;21.89;57.56;98148.31;6970842;28;20202;-81
2023/08/29 12:03:56;;;;;;;7.67;7.07;;;;;;;21.74;58.35;98157.53;6970691;28;20307;-81
2023/08/29 12:07:18;;;;;;;8.80;8.00;;;;;;;22.28;58.02;98126.91;6970819;28;20241;-81
2023/08/29 12:10:52;;;;;;;8.30;7.60;;;;;;;21.87;57.91;98090.13;6970221;28;20341;-82
2023/08/29 12:14:13;;;;;;;6.77;6.17;;;;;;;22.22;56.31;98139.06;6953865;28;20680;-82
2023/08/29 12:17:38;;;;;;;6.73;6.20;;;;;;;22.26;57.55;98149.19;6966985;28;20233;-81
2023/08/29 12:21:16;;;;;;;5.63;5.23;;;;;;;22.38;56.30;98144.06;6967530;28;20340;-82
2023/08/29 12:24:37;;;;;;;5.43;4.93;;;;;;;22.36;56.11;98146.28;6968301;28;20313;-82
2023/08/29 12:28:00;;;;;;;5.70;5.30;;;;;;;22.78;55.38;98135.22;6967336;28;20558;-81
2023/08/29 12:31:28;;;;;;;5.70;5.20;;;;;;;22.52;55.47;98134.00;6968651;28;20682;-81
2023/08/29 12:34:50;;;;;;;6.83;5.83;;;;;;;22.63;55.01;98151.13;6969407;28;20237;-82
2023/08/29 12:38:12;;;;;;;6.27;5.53;;;;;;;22.52;55.25;98150.47;6975404;28;20671;-81
2023/08/29 12:41:33;;;;;;;6.93;6.37;;;;;;;22.20;57.34;98160.53;6977276;28;20225;-82
2023/08/29 12:44:56;;;;;;;6.77;6.20;;;;;;;21.90;56.13;98065.66;6974134;28;20230;-82
2023/08/29 12:48:20;;;;;;;7.20;6.60;;;;;;;22.32;56.50;98138.94;6974441;28;20237;-82
2023/08/29 12:51:42;;;;;;;6.87;6.20;;;;;;;22.65;54.70;98149.72;6975149;28;20285;-81
2023/08/29 12:55:04;;;;;;;9.00;7.73;;;;;;;22.47;55.88;98155.22;6976333;28;20589;-82
2023/08/29 12:58:25;;;;;;;8.13;7.43;;;;;;;22.36;57.08;98148.22;6974378;28;20244;-81
2023/08/29 13:01:48;;;;;;;8.17;7.37;;;;;;;22.30;56.58;98146.66;6975151;28;20222;-81
2023/08/29 13:05:10;;;;;;;9.50;8.70;;;;;;;22.45;55.77;98149.22;6975412;28;20683;-84
2023/08/29 13:08:31;;;;;;;8.07;7.43;;;;;;;22.52;56.34;98147.72;6972983;28;20364;-81
2023/08/29 13:11:53;;;;;;;6.70;6.00;;;;;;;22.22;57.04;98142.66;6991105;28;20202;-82
2023/08/29 13:15:16;;;;;;;4.10;3.70;;;;;;;21.59;56.18;98143.94;6973913;28;20272;-82
2023/08/29 13:18:39;;;;;;;3.27;2.97;;;;;;;21.70;55.29;98129.03;6972253;28;20210;-82
2023/08/29 13:22:02;;;;;;;3.50;3.13;;;;;;;21.84;54.65;98115.44;6974567;28;20277;-82
2023/08/29 13:25:23;;;;;;;3.67;3.37;;;;;;;21.70;56.34;98148.25;6976126;28;20227;-82
2023/08/29 13:28:45;;;;;;;3.70;3.40;;;;;;;21.86;55.44;98151.63;6975216;28;20292;-81
2023/08/29 13:32:07;;;;;;;3.13;2.50;;;;;;;21.78;54.76;98144.84;6972186;28;20667;-82
2023/08/29 13:35:29;;;;;;;4.07;3.77;;;;;;;21.78;55.15;98146.78;6974737;28;20262;-81
2023/08/29 13:38:51;;;;;;;5.33;3.73;;;;;;;22.30;54.66;98141.16;6973796;28;20337;-82
2023/08/29 13:42:12;;;;;;;4.73;4.33;;;;;;;22.43;54.60;98132.22;6975538;28;20520;-81
2023/08/29 13:45:35;;;;;;;5.50;5.00;;;;;;;22.12;55.75;98122.75;6975225;28;20854;-81
2023/08/29 13:48:56;;;;;;;6.33;4.90;;;;;;;22.36;54.85;98135.28;6973156;28;20215;-81
2023/08/29 13:52:19;;;;;;;4.80;4.40;;;;;;;22.63;53.55;98129.16;6976156;28;20352;-80
2023/08/29 13:55:40;;;;;;;4.03;3.73;;;;;;;22.57;53.29;98102.88;6981848;28;20657;-81
2023/08/29 13:59:03;;;;;;;4.40;4.10;;;;;;;22.15;54.14;98120.22;6973051;28;20680;-81
2023/08/29 14:02:24;;;;;;;4.23;3.70;;;;;;;22.44;54.31;98128.34;6972405;28;20206;-82
2023/08/29 14:05:46;;;;;;;4.10;3.67;;;;;;;22.62;53.57;98133.84;6969526;28;20238;-81
2023/08/29 14:09:09;;;;;;;5.20;3.50;;;;;;;22.57;53.36;98109.19;6972305;28;20645;-85
2023/08/29 14:12:31;;;;;;;3.80;3.50;;;;;;;22.07;53.75;98096.16;6973384;28;20210;-82
2023/08/29 14:16:00;;;;;;;3.73;3.43;;;;;;;22.62;53.76;98113.78;6972846;28;20710;-82
2023/08/29 14:19:21;;;;;;;3.87;3.40;;;;;;;22.58;54.05;98119.06;6972707;28;20536;-81
2023/08/29 14:22:43;;;;;;;4.27;3.47;;;;;;;22.84;52.90;98119.47;6971863;28;20233;-81
2023/08/29 14:26:09;;;;;;;4.00;3.70;;;;;;;23.07;51.74;98110.28;6964073;28;20556;-83
2023/08/29 14:29:31;;;;;;;7.87;3.57;;;;;;;22.74;52.38;98106.72;6945237;28;20199;-82
2023/08/29 14:32:52;;;;;;;4.20;3.90;;;;;;;22.99;52.06;98110.94;6959028;28;20349;-81
2023/08/29 14:36:14;;;;;;;4.27;3.87;;;;;;;23.22;50.90;98110.84;6971292;28;20230;-81
2023/08/29 14:39:35;;;;;;;4.37;3.97;;;;;;;22.38;53.23;98074.56;6971657;28;20680;-82
2023/08/29 14:42:58;;;;;;;4.60;4.30;;;;;;;22.81;53.07;98123.63;6971888;28;20693;-81
2023/08/29 14:46:19;;;;;;;4.60;4.20;;;;;;;23.01;51.61;98126.03;6972237;28;20280;-82
2023/08/29 14:49:41;;;;;;;4.00;3.60;;;;;;;23.08;51.12;98084.41;6958250;28;20235;-81
2023/08/29 14:53:03;;;;;;;5.40;4.90;;;;;;;22.87;52.56;98127.94;6976955;28;20314;-81
2023/08/29 14:56:25;;;;;;;4.13;3.83;;;;;;;23.02;51.18;98130.41;6969823;28;20241;-81
2023/08/29 14:59:48;;;;;;;4.23;3.93;;;;;;;22.86;51.39;98133.72;6964772;28;20213;-82
2023/08/29 15:03:09;;;;;;;5.07;4.10;;;;;;;22.93;52.06;98137.72;6967107;28;20721;-82
2023/08/29 15:06:32;;;;;;;4.87;4.27;;;;;;;22.74;52.96;98120.47;6960391;28;20348;-83
2023/08/29 15:09:53;;;;;;;5.67;5.27;;;;;;;22.73;54.54;98134.50;6970925;28;20562;-82
2023/08/29 15:13:15;;;;;;;6.03;5.53;;;;;;;22.77;54.60;98132.78;6970952;28;20687;-84
2023/08/29 15:16:38;;;;;;;8.37;7.60;;;;;;;22.49;57.06;98139.28;6970052;28;20222;-86
2023/08/29 15:20:00;;;;;;;6.20;5.60;;;;;;;22.41;56.60;98126.16;6971974;28;20207;-81
2023/08/29 15:23:22;;;;;;;5.03;4.60;;;;;;;22.31;54.71;98118.09;6982053;28;20264;-85
2023/08/29 15:26:44;;;;;;;4.20;3.70;;;;;;;22.02;55.04;98136.59;6974494;28;20212;-82
2023/08/29 15:30:07;;;;;;;3.67;3.37;;;;;;;22.72;54.24;98130.91;6973867;28;20206;-82
2023/08/29 15:33:31;;;;;;;3.83;3.30;;;;;;;22.19;54.24;98136.94;6973843;28;20245;-82
2023/08/29 15:36:52;;;;;;;4.87;3.10;;;;;;;21.83;54.83;98120.09;6969968;28;20383;-81
2023/08/29 15:40:14;;;;;;;3.37;3.00;;;;;;;22.30;54.18;98128.25;6970894;28;20202;-82
2023/08/29 15:43:36;;;;;;;2.90;2.60;;;;;;;22.53;53.10;98130.13;6970550;28;20234;-82
2023/08/29 15:46:57;;;;;;;3.00;2.80;;;;;;;22.59;53.67;98122.63;6964125;28;20242;-82